sensor_id;sensor_type;location;lat;lon;timestamp;pressure;altitude;pressure_sealevel;temperature;humidity
10518;BME280;5307;42.548;22.968;2023-06-14T00:00:37;93593.97;;;15.75;100.00
10518;BME280;5307;42.548;22.968;2023-06-14T00:03:06;93586.19;;;15.99;100.00
10518;BME280;5307;42.548;22.968;2023-06-14T00:05:33;93594.19;;;15.97;100.00
10518;BME280;5307;42.548;22.968;2023-06-14T00:08:05;93579.25;;;15.78;100.00
10518;BME280;5307;42.548;22.968;2023-06-14T00:10:33;93591.59;;;15.88;100.00
10518;BME280;5307;42.548;22.968;2023-06-14T00:13:00;93585.19;;;16.02;100.00
10518;BME280;5307;42.548;22.968;2023-06-14T00:15:27;93586.91;;;15.94;100.00
10518;BME280;5307;42.548;22.968;2023-06-14T00:17:54;93578.66;;;16.00;100.00
10518;BME280;5307;42.548;22.968;2023-06-14T00:20:22;93588.44;;;16.01;100.00
10518;BME280;5307;42.548;22.968;2023-06-14T00:22:48;93581.41;;;16.00;100.00
10518;BME280;5307;42.548;22.968;2023-06-14T00:25:17;93575.69;;;16.03;100.00
10518;BME280;5307;42.548;22.968;2023-06-14T00:27:43;93577.13;;;15.93;100.00
10518;BME280;5307;42.548;22.968;2023-06-14T00:30:11;93568.13;;;15.98;100.00
10518;BME280;5307;42.548;22.968;2023-06-14T00:32:38;93573.97;;;16.06;100.00
10518;BME280;5307;42.548;22.968;2023-06-14T00:35:05;93573.22;;;16.06;100.00
10518;BME280;5307;42.548;22.968;2023-06-14T00:37:33;93563.63;;;15.95;100.00
10518;BME280;5307;42.548;22.968;2023-06-14T00:40:00;93564.03;;;15.88;100.00
10518;BME280;5307;42.548;22.968;2023-06-14T00:42:28;93567.91;;;16.02;100.00
10518;BME280;5307;42.548;22.968;2023-06-14T00:44:55;93562.63;;;15.98;100.00
10518;BME280;5307;42.548;22.968;2023-06-14T00:47:22;93562.53;;;15.87;100.00
10518;BME280;5307;42.548;22.968;2023-06-14T00:49:50;93561.66;;;16.01;100.00
10518;BME280;5307;42.548;22.968;2023-06-14T00:52:17;93557.59;;;15.91;100.00
10518;BME280;5307;42.548;22.968;2023-06-14T00:54:44;93558.38;;;15.97;100.00
10518;BME280;5307;42.548;22.968;2023-06-14T00:57:12;93544.06;;;15.93;100.00
10518;BME280;5307;42.548;22.968;2023-06-14T00:59:44;93551.84;;;15.95;100.00
10518;BME280;5307;42.548;22.968;2023-06-14T01:02:11;93546.47;;;15.80;100.00
10518;BME280;5307;42.548;22.968;2023-06-14T01:04:40;93540.06;;;15.94;100.00
10518;BME280;5307;42.548;22.968;2023-06-14T01:07:13;93539.41;;;16.05;100.00
10518;BME280;5307;42.548;22.968;2023-06-14T01:09:50;93542.38;;;16.01;100.00
10518;BME280;5307;42.548;22.968;2023-06-14T01:12:26;93543.31;;;15.93;100.00
10518;BME280;5307;42.548;22.968;2023-06-14T01:15:31;93533.84;;;15.99;100.00
10518;BME280;5307;42.548;22.968;2023-06-14T01:17:58;93537.09;;;15.98;100.00
10518;BME280;5307;42.548;22.968;2023-06-14T01:20:29;93542.41;;;16.07;100.00
10518;BME280;5307;42.548;22.968;2023-06-14T01:22:58;93541.84;;;15.97;100.00
10518;BME280;5307;42.548;22.968;2023-06-14T01:25:26;93549.13;;;16.00;100.00
10518;BME280;5307;42.548;22.968;2023-06-14T01:38:01;93542.69;;;15.78;100.00
10518;BME280;5307;42.548;22.968;2023-06-14T01:40:30;93548.25;;;15.83;100.00
10518;BME280;5307;42.548;22.968;2023-06-14T01:42:58;93558.19;;;15.75;100.00
10518;BME280;5307;42.548;22.968;2023-06-14T01:45:25;93554.84;;;15.65;100.00
10518;BME280;5307;42.548;22.968;2023-06-14T01:47:52;93559.38;;;15.68;100.00
10518;BME280;5307;42.548;22.968;2023-06-14T01:50:19;93547.75;;;15.59;100.00
10518;BME280;5307;42.548;22.968;2023-06-14T01:52:46;93555.38;;;15.43;100.00
10518;BME280;5307;42.548;22.968;2023-06-14T01:55:14;93563.41;;;15.47;100.00
10518;BME280;5307;42.548;22.968;2023-06-14T01:57:43;93574.16;;;15.45;100.00
10518;BME280;5307;42.548;22.968;2023-06-14T02:00:11;93574.09;;;15.39;100.00
10518;BME280;5307;42.548;22.968;2023-06-14T02:02:38;93573.66;;;15.47;100.00
10518;BME280;5307;42.548;22.968;2023-06-14T02:05:05;93568.81;;;15.36;100.00
10518;BME280;5307;42.548;22.968;2023-06-14T02:07:33;93571.72;;;15.27;100.00
10518;BME280;5307;42.548;22.968;2023-06-14T02:10:01;93581.44;;;15.22;100.00
10518;BME280;5307;42.548;22.968;2023-06-14T02:12:29;93570.97;;;15.26;100.00
10518;BME280;5307;42.548;22.968;2023-06-14T02:14:58;93581.84;;;15.15;100.00
10518;BME280;5307;42.548;22.968;2023-06-14T02:17:24;93580.31;;;15.14;100.00
10518;BME280;5307;42.548;22.968;2023-06-14T02:19:51;93572.03;;;15.08;100.00
10518;BME280;5307;42.548;22.968;2023-06-14T02:22:18;93574.69;;;15.03;100.00
10518;BME280;5307;42.548;22.968;2023-06-14T02:24:47;93579.66;;;14.99;100.00
10518;BME280;5307;42.548;22.968;2023-06-14T02:27:14;93585.69;;;15.03;100.00
10518;BME280;5307;42.548;22.968;2023-06-14T02:29:42;93587.41;;;15.00;100.00
10518;BME280;5307;42.548;22.968;2023-06-14T02:32:09;93591.19;;;15.03;100.00
10518;BME280;5307;42.548;22.968;2023-06-14T02:34:36;93590.66;;;14.78;100.00
10518;BME280;5307;42.548;22.968;2023-06-14T02:37:06;93581.56;;;14.72;100.00
10518;BME280;5307;42.548;22.968;2023-06-14T02:39:33;93588.47;;;14.82;100.00
10518;BME280;5307;42.548;22.968;2023-06-14T02:42:00;93592.19;;;14.79;100.00
10518;BME280;5307;42.548;22.968;2023-06-14T02:44:27;93585.50;;;14.66;100.00
10518;BME280;5307;42.548;22.968;2023-06-14T02:46:55;93581.91;;;14.60;100.00
10518;BME280;5307;42.548;22.968;2023-06-14T02:49:24;93577.16;;;14.60;100.00
10518;BME280;5307;42.548;22.968;2023-06-14T02:51:50;93574.84;;;14.53;100.00
10518;BME280;5307;42.548;22.968;2023-06-14T02:54:17;93577.22;;;14.45;100.00
10518;BME280;5307;42.548;22.968;2023-06-14T02:56:44;93580.16;;;14.42;100.00
10518;BME280;5307;42.548;22.968;2023-06-14T02:59:11;93573.06;;;14.35;100.00
10518;BME280;5307;42.548;22.968;2023-06-14T03:01:39;93573.88;;;14.56;100.00
10518;BME280;5307;42.548;22.968;2023-06-14T03:04:08;93583.34;;;14.55;100.00
10518;BME280;5307;42.548;22.968;2023-06-14T03:06:35;93585.16;;;14.43;100.00
10518;BME280;5307;42.548;22.968;2023-06-14T03:09:03;93575.03;;;14.35;100.00
10518;BME280;5307;42.548;22.968;2023-06-14T03:11:31;93598.06;;;14.37;100.00
10518;BME280;5307;42.548;22.968;2023-06-14T03:13:57;93601.75;;;14.34;100.00
10518;BME280;5307;42.548;22.968;2023-06-14T03:16:24;93609.72;;;14.32;100.00
10518;BME280;5307;42.548;22.968;2023-06-14T03:18:55;93602.69;;;14.11;100.00
10518;BME280;5307;42.548;22.968;2023-06-14T03:21:23;93615.69;;;14.31;100.00
10518;BME280;5307;42.548;22.968;2023-06-14T03:23:51;93621.09;;;14.40;100.00
10518;BME280;5307;42.548;22.968;2023-06-14T03:26:18;93623.13;;;14.60;100.00
10518;BME280;5307;42.548;22.968;2023-06-14T03:28:45;93627.81;;;14.39;100.00
10518;BME280;5307;42.548;22.968;2023-06-14T03:31:14;93632.13;;;14.60;100.00
10518;BME280;5307;42.548;22.968;2023-06-14T03:33:41;93613.16;;;14.62;100.00
10518;BME280;5307;42.548;22.968;2023-06-14T03:36:08;93619.72;;;14.85;100.00
10518;BME280;5307;42.548;22.968;2023-06-14T03:38:36;93620.50;;;14.85;100.00
10518;BME280;5307;42.548;22.968;2023-06-14T03:41:03;93623.13;;;14.95;100.00
10518;BME280;5307;42.548;22.968;2023-06-14T03:43:30;93624.34;;;14.94;100.00
10518;BME280;5307;42.548;22.968;2023-06-14T03:45:57;93614.09;;;14.94;100.00
10518;BME280;5307;42.548;22.968;2023-06-14T03:48:41;93618.97;;;14.84;100.00
10518;BME280;5307;42.548;22.968;2023-06-14T03:51:07;93619.34;;;14.92;100.00
10518;BME280;5307;42.548;22.968;2023-06-14T04:03:12;93618.44;;;15.21;100.00
10518;BME280;5307;42.548;22.968;2023-06-14T04:05:40;93608.28;;;15.33;100.00
10518;BME280;5307;42.548;22.968;2023-06-14T04:08:08;93601.88;;;15.41;100.00
10518;BME280;5307;42.548;22.968;2023-06-14T04:10:36;93611.13;;;15.38;100.00
10518;BME280;5307;42.548;22.968;2023-06-14T04:13:02;93598.41;;;15.47;100.00
10518;BME280;5307;42.548;22.968;2023-06-14T04:15:30;93613.28;;;15.55;100.00
10518;BME280;5307;42.548;22.968;2023-06-14T04:17:56;93609.69;;;15.69;100.00
10518;BME280;5307;42.548;22.968;2023-06-14T04:20:25;93614.28;;;15.78;100.00
10518;BME280;5307;42.548;22.968;2023-06-14T04:22:52;93601.66;;;15.91;100.00
10518;BME280;5307;42.548;22.968;2023-06-14T04:25:22;93600.03;;;16.11;100.00
10518;BME280;5307;42.548;22.968;2023-06-14T04:27:50;93595.88;;;16.21;100.00
10518;BME280;5307;42.548;22.968;2023-06-14T04:30:17;93583.94;;;16.35;100.00
10518;BME280;5307;42.548;22.968;2023-06-14T04:32:44;93594.72;;;16.33;100.00
10518;BME280;5307;42.548;22.968;2023-06-14T04:35:11;93592.38;;;16.63;100.00
10518;BME280;5307;42.548;22.968;2023-06-14T04:37:39;93609.63;;;16.95;100.00
10518;BME280;5307;42.548;22.968;2023-06-14T04:40:09;93611.47;;;17.15;100.00
10518;BME280;5307;42.548;22.968;2023-06-14T04:42:36;93628.00;;;17.09;100.00
10518;BME280;5307;42.548;22.968;2023-06-14T04:45:06;93620.63;;;16.89;100.00
10518;BME280;5307;42.548;22.968;2023-06-14T04:47:34;93625.16;;;16.55;100.00
10518;BME280;5307;42.548;22.968;2023-06-14T04:50:03;93616.63;;;16.53;100.00
10518;BME280;5307;42.548;22.968;2023-06-14T04:52:30;93628.72;;;16.61;100.00
10518;BME280;5307;42.548;22.968;2023-06-14T04:54:58;93627.38;;;16.83;100.00
10518;BME280;5307;42.548;22.968;2023-06-14T04:57:25;93626.03;;;16.67;100.00
10518;BME280;5307;42.548;22.968;2023-06-14T04:59:52;93632.28;;;16.68;100.00
10518;BME280;5307;42.548;22.968;2023-06-14T05:02:21;93640.97;;;16.60;100.00
10518;BME280;5307;42.548;22.968;2023-06-14T05:04:48;93639.00;;;16.61;100.00
10518;BME280;5307;42.548;22.968;2023-06-14T05:07:15;93645.09;;;16.71;100.00
10518;BME280;5307;42.548;22.968;2023-06-14T05:09:42;93647.66;;;16.80;100.00
10518;BME280;5307;42.548;22.968;2023-06-14T05:12:10;93656.03;;;16.97;100.00
10518;BME280;5307;42.548;22.968;2023-06-14T05:14:37;93647.31;;;17.09;100.00
10518;BME280;5307;42.548;22.968;2023-06-14T05:17:05;93640.41;;;16.88;100.00
10518;BME280;5307;42.548;22.968;2023-06-14T05:19:32;93645.88;;;16.77;100.00
10518;BME280;5307;42.548;22.968;2023-06-14T05:21:59;93655.69;;;17.32;100.00
10518;BME280;5307;42.548;22.968;2023-06-14T05:24:26;93652.97;;;17.43;100.00
10518;BME280;5307;42.548;22.968;2023-06-14T05:26:54;93660.44;;;17.91;100.00
10518;BME280;5307;42.548;22.968;2023-06-14T05:29:22;93653.44;;;18.46;100.00
10518;BME280;5307;42.548;22.968;2023-06-14T05:31:49;93650.16;;;18.36;100.00
10518;BME280;5307;42.548;22.968;2023-06-14T05:34:16;93653.88;;;19.00;100.00
10518;BME280;5307;42.548;22.968;2023-06-14T05:36:42;93649.91;;;18.62;100.00
10518;BME280;5307;42.548;22.968;2023-06-14T05:39:09;93657.19;;;18.37;100.00
10518;BME280;5307;42.548;22.968;2023-06-14T05:41:38;93649.03;;;19.23;100.00
10518;BME280;5307;42.548;22.968;2023-06-14T05:44:05;93639.22;;;19.22;100.00
10518;BME280;5307;42.548;22.968;2023-06-14T05:46:34;93644.19;;;19.46;100.00
10518;BME280;5307;42.548;22.968;2023-06-14T05:49:01;93648.59;;;18.96;100.00
10518;BME280;5307;42.548;22.968;2023-06-14T05:51:27;93646.97;;;19.40;100.00
10518;BME280;5307;42.548;22.968;2023-06-14T05:53:57;93650.66;;;19.71;100.00
10518;BME280;5307;42.548;22.968;2023-06-14T05:56:24;93644.78;;;19.85;100.00
10518;BME280;5307;42.548;22.968;2023-06-14T05:58:51;93653.63;;;19.04;100.00
10518;BME280;5307;42.548;22.968;2023-06-14T06:01:18;93640.25;;;19.19;100.00
10518;BME280;5307;42.548;22.968;2023-06-14T06:03:46;93643.53;;;19.17;100.00
10518;BME280;5307;42.548;22.968;2023-06-14T06:06:13;93652.25;;;19.96;100.00
10518;BME280;5307;42.548;22.968;2023-06-14T06:08:41;93649.72;;;20.34;96.54
10518;BME280;5307;42.548;22.968;2023-06-14T06:11:09;93647.53;;;19.22;96.75
10518;BME280;5307;42.548;22.968;2023-06-14T06:13:36;93650.16;;;19.67;97.07
10518;BME280;5307;42.548;22.968;2023-06-14T06:16:11;93659.03;;;20.42;92.28
10518;BME280;5307;42.548;22.968;2023-06-14T06:18:38;93654.81;;;19.89;92.58
10518;BME280;5307;42.548;22.968;2023-06-14T06:21:06;93648.03;;;21.15;90.52
10518;BME280;5307;42.548;22.968;2023-06-14T06:23:33;93646.88;;;21.29;86.33
10518;BME280;5307;42.548;22.968;2023-06-14T06:26:01;93649.00;;;20.93;84.53
10518;BME280;5307;42.548;22.968;2023-06-14T06:28:28;93650.56;;;21.13;84.57
10518;BME280;5307;42.548;22.968;2023-06-14T06:30:54;93635.28;;;21.25;84.23
10518;BME280;5307;42.548;22.968;2023-06-14T06:33:21;93646.00;;;21.16;83.65
10518;BME280;5307;42.548;22.968;2023-06-14T06:35:48;93645.41;;;20.38;84.42
10518;BME280;5307;42.548;22.968;2023-06-14T06:38:17;93643.56;;;20.52;84.65
10518;BME280;5307;42.548;22.968;2023-06-14T06:40:44;93648.03;;;19.84;87.36
10518;BME280;5307;42.548;22.968;2023-06-14T06:43:10;93648.16;;;19.62;90.09
10518;BME280;5307;42.548;22.968;2023-06-14T06:45:39;93653.22;;;20.04;91.61
10518;BME280;5307;42.548;22.968;2023-06-14T06:48:05;93652.13;;;20.19;90.84
10518;BME280;5307;42.548;22.968;2023-06-14T06:50:32;93654.22;;;20.07;93.52
10518;BME280;5307;42.548;22.968;2023-06-14T06:52:59;93657.34;;;20.28;94.71
10518;BME280;5307;42.548;22.968;2023-06-14T06:55:27;93647.06;;;20.58;91.04
10518;BME280;5307;42.548;22.968;2023-06-14T06:57:54;93656.28;;;19.95;88.54
10518;BME280;5307;42.548;22.968;2023-06-14T07:00:21;93643.63;;;21.25;88.12
10518;BME280;5307;42.548;22.968;2023-06-14T07:02:47;93651.06;;;20.27;84.68
10518;BME280;5307;42.548;22.968;2023-06-14T07:05:14;93639.31;;;21.24;83.29
10518;BME280;5307;42.548;22.968;2023-06-14T07:07:41;93645.31;;;20.55;81.63
10518;BME280;5307;42.548;22.968;2023-06-14T07:10:08;93648.31;;;21.12;80.34
10518;BME280;5307;42.548;22.968;2023-06-14T07:12:37;93645.00;;;20.89;79.46
10518;BME280;5307;42.548;22.968;2023-06-14T07:15:06;93643.91;;;21.46;81.74
10518;BME280;5307;42.548;22.968;2023-06-14T07:17:36;93647.69;;;21.86;80.37
10518;BME280;5307;42.548;22.968;2023-06-14T07:20:03;93642.63;;;20.44;79.38
10518;BME280;5307;42.548;22.968;2023-06-14T07:22:37;93637.75;;;21.53;80.19
10518;BME280;5307;42.548;22.968;2023-06-14T07:25:05;93646.75;;;20.92;77.93
10518;BME280;5307;42.548;22.968;2023-06-14T07:27:32;93635.22;;;21.93;78.47
10518;BME280;5307;42.548;22.968;2023-06-14T07:30:00;93633.78;;;21.68;75.99
10518;BME280;5307;42.548;22.968;2023-06-14T07:32:29;93634.03;;;21.70;74.82
10518;BME280;5307;42.548;22.968;2023-06-14T07:34:55;93639.41;;;21.62;75.33
10518;BME280;5307;42.548;22.968;2023-06-14T07:37:23;93644.66;;;21.22;75.63
10518;BME280;5307;42.548;22.968;2023-06-14T07:39:50;93646.28;;;21.37;76.37
10518;BME280;5307;42.548;22.968;2023-06-14T07:42:17;93653.34;;;21.38;75.66
10518;BME280;5307;42.548;22.968;2023-06-14T07:44:44;93647.31;;;21.58;74.53
10518;BME280;5307;42.548;22.968;2023-06-14T07:47:14;93657.88;;;22.54;75.34
10518;BME280;5307;42.548;22.968;2023-06-14T07:49:40;93665.44;;;21.16;73.98
10518;BME280;5307;42.548;22.968;2023-06-14T07:52:07;93658.84;;;22.24;73.39
10518;BME280;5307;42.548;22.968;2023-06-14T07:54:37;93652.16;;;22.14;72.92
10518;BME280;5307;42.548;22.968;2023-06-14T07:57:04;93660.78;;;21.73;74.71
10518;BME280;5307;42.548;22.968;2023-06-14T07:59:31;93668.97;;;21.16;75.33
10518;BME280;5307;42.548;22.968;2023-06-14T08:01:58;93662.72;;;21.97;75.10
10518;BME280;5307;42.548;22.968;2023-06-14T08:04:26;93666.44;;;22.56;73.12
10518;BME280;5307;42.548;22.968;2023-06-14T08:06:53;93670.38;;;21.90;71.72
10518;BME280;5307;42.548;22.968;2023-06-14T08:09:26;93680.97;;;21.24;72.50
10518;BME280;5307;42.548;22.968;2023-06-14T08:11:54;93684.31;;;20.93;71.94
10518;BME280;5307;42.548;22.968;2023-06-14T08:14:21;93679.47;;;21.29;72.56
10518;BME280;5307;42.548;22.968;2023-06-14T08:16:49;93675.16;;;22.14;66.74
10518;BME280;5307;42.548;22.968;2023-06-14T08:19:15;93678.78;;;22.92;69.46
10518;BME280;5307;42.548;22.968;2023-06-14T08:21:45;93673.56;;;22.19;67.11
10518;BME280;5307;42.548;22.968;2023-06-14T08:24:12;93673.69;;;21.27;69.38
10518;BME280;5307;42.548;22.968;2023-06-14T08:26:39;93681.09;;;20.89;73.18
10518;BME280;5307;42.548;22.968;2023-06-14T08:29:06;93676.25;;;21.87;73.41
10518;BME280;5307;42.548;22.968;2023-06-14T08:38:14;93671.63;;;22.14;64.72
10518;BME280;5307;42.548;22.968;2023-06-14T08:40:42;93663.06;;;23.34;64.75
10518;BME280;5307;42.548;22.968;2023-06-14T08:43:09;93670.69;;;23.74;67.86
10518;BME280;5307;42.548;22.968;2023-06-14T08:45:35;93665.78;;;23.80;68.75
10518;BME280;5307;42.548;22.968;2023-06-14T08:48:02;93661.38;;;23.71;63.23
10518;BME280;5307;42.548;22.968;2023-06-14T08:50:31;93660.41;;;23.55;64.19
10518;BME280;5307;42.548;22.968;2023-06-14T08:53:00;93660.47;;;24.03;61.55
10518;BME280;5307;42.548;22.968;2023-06-14T08:55:30;93658.47;;;23.77;61.17
10518;BME280;5307;42.548;22.968;2023-06-14T08:57:59;93650.88;;;23.64;62.13
10518;BME280;5307;42.548;22.968;2023-06-14T09:00:28;93656.41;;;23.90;60.62
10518;BME280;5307;42.548;22.968;2023-06-14T09:02:56;93637.41;;;24.02;61.14
10518;BME280;5307;42.548;22.968;2023-06-14T09:05:24;93636.44;;;24.34;61.09
10518;BME280;5307;42.548;22.968;2023-06-14T09:07:51;93641.22;;;24.12;60.62
10518;BME280;5307;42.548;22.968;2023-06-14T09:10:21;93642.69;;;24.26;59.77
10518;BME280;5307;42.548;22.968;2023-06-14T09:12:49;93636.31;;;24.05;61.43
10518;BME280;5307;42.548;22.968;2023-06-14T09:15:17;93637.91;;;24.14;58.13
10518;BME280;5307;42.548;22.968;2023-06-14T09:17:44;93630.72;;;24.05;57.32
10518;BME280;5307;42.548;22.968;2023-06-14T09:20:11;93633.16;;;24.22;58.42
10518;BME280;5307;42.548;22.968;2023-06-14T09:22:39;93631.22;;;24.93;60.64
10518;BME280;5307;42.548;22.968;2023-06-14T09:25:07;93625.66;;;24.93;57.38
10518;BME280;5307;42.548;22.968;2023-06-14T09:27:34;93628.28;;;24.98;57.93
10518;BME280;5307;42.548;22.968;2023-06-14T09:30:03;93623.00;;;24.11;56.20
10518;BME280;5307;42.548;22.968;2023-06-14T09:32:30;93620.66;;;24.02;54.99
10518;BME280;5307;42.548;22.968;2023-06-14T09:34:57;93621.84;;;24.41;57.65
10518;BME280;5307;42.548;22.968;2023-06-14T09:37:28;93621.16;;;25.18;56.77
10518;BME280;5307;42.548;22.968;2023-06-14T09:39:56;93620.81;;;24.17;55.03
10518;BME280;5307;42.548;22.968;2023-06-14T09:42:24;93614.19;;;24.62;57.40
10518;BME280;5307;42.548;22.968;2023-06-14T09:44:54;93609.47;;;25.20;56.00
10518;BME280;5307;42.548;22.968;2023-06-14T09:47:23;93616.22;;;24.07;56.34
10518;BME280;5307;42.548;22.968;2023-06-14T09:49:50;93620.41;;;24.13;55.97
10518;BME280;5307;42.548;22.968;2023-06-14T09:52:20;93618.09;;;24.59;58.77
10518;BME280;5307;42.548;22.968;2023-06-14T09:54:48;93614.25;;;24.49;55.90
10518;BME280;5307;42.548;22.968;2023-06-14T09:57:16;93612.84;;;24.55;57.13
10518;BME280;5307;42.548;22.968;2023-06-14T09:59:47;93607.19;;;24.69;55.91
10518;BME280;5307;42.548;22.968;2023-06-14T10:02:24;93583.16;;;24.45;55.69
10518;BME280;5307;42.548;22.968;2023-06-14T10:04:57;93599.56;;;24.14;54.87
10518;BME280;5307;42.548;22.968;2023-06-14T10:07:26;93595.44;;;24.91;55.80
10518;BME280;5307;42.548;22.968;2023-06-14T10:09:57;93587.06;;;25.12;56.01
10518;BME280;5307;42.548;22.968;2023-06-14T10:12:24;93580.41;;;24.73;52.98
10518;BME280;5307;42.548;22.968;2023-06-14T10:14:52;93570.28;;;24.42;52.83
10518;BME280;5307;42.548;22.968;2023-06-14T10:17:25;93574.72;;;24.37;51.80
10518;BME280;5307;42.548;22.968;2023-06-14T10:19:57;93571.78;;;24.43;50.94
10518;BME280;5307;42.548;22.968;2023-06-14T10:22:32;93564.41;;;24.74;51.66
10518;BME280;5307;42.548;22.968;2023-06-14T10:25:01;93573.03;;;25.40;54.01
10518;BME280;5307;42.548;22.968;2023-06-14T10:27:28;93570.00;;;24.32;51.10
10518;BME280;5307;42.548;22.968;2023-06-14T10:30:03;93574.19;;;24.88;52.39
10518;BME280;5307;42.548;22.968;2023-06-14T10:32:32;93573.53;;;25.31;53.63
10518;BME280;5307;42.548;22.968;2023-06-14T10:35:00;93571.09;;;24.71;51.28
10518;BME280;5307;42.548;22.968;2023-06-14T10:37:27;93552.69;;;24.75;52.32
10518;BME280;5307;42.548;22.968;2023-06-14T10:39:54;93558.22;;;24.96;52.39
10518;BME280;5307;42.548;22.968;2023-06-14T10:42:21;93558.19;;;24.39;51.34
10518;BME280;5307;42.548;22.968;2023-06-14T10:44:51;93555.63;;;24.70;51.26
10518;BME280;5307;42.548;22.968;2023-06-14T10:47:23;93557.53;;;25.03;50.63
10518;BME280;5307;42.548;22.968;2023-06-14T10:49:53;93555.91;;;25.08;49.23
10518;BME280;5307;42.548;22.968;2023-06-14T10:52:22;93549.88;;;25.32;50.36
10518;BME280;5307;42.548;22.968;2023-06-14T10:55:00;93539.16;;;25.08;52.09
10518;BME280;5307;42.548;22.968;2023-06-14T10:57:29;93543.22;;;25.35;51.87
10518;BME280;5307;42.548;22.968;2023-06-14T10:59:57;93534.63;;;24.76;49.53
10518;BME280;5307;42.548;22.968;2023-06-14T11:02:51;93535.91;;;25.32;52.41
10518;BME280;5307;42.548;22.968;2023-06-14T11:05:24;93530.19;;;25.45;49.66
10518;BME280;5307;42.548;22.968;2023-06-14T11:08:02;93530.31;;;24.47;50.59
10518;BME280;5307;42.548;22.968;2023-06-14T11:10:48;93524.72;;;25.32;52.19
10518;BME280;5307;42.548;22.968;2023-06-14T11:13:16;93512.97;;;25.26;51.65
10518;BME280;5307;42.548;22.968;2023-06-14T11:15:51;93515.38;;;25.66;53.27
10518;BME280;5307;42.548;22.968;2023-06-14T11:18:19;93512.22;;;25.26;51.52
10518;BME280;5307;42.548;22.968;2023-06-14T11:20:51;93525.59;;;24.63;52.75
10518;BME280;5307;42.548;22.968;2023-06-14T11:23:18;93530.56;;;24.77;52.40
10518;BME280;5307;42.548;22.968;2023-06-14T11:25:49;93525.19;;;24.87;47.76
10518;BME280;5307;42.548;22.968;2023-06-14T11:28:16;93515.81;;;25.34;51.11
10518;BME280;5307;42.548;22.968;2023-06-14T11:30:45;93510.16;;;25.70;49.94
10518;BME280;5307;42.548;22.968;2023-06-14T11:33:16;93510.03;;;24.75;47.27
10518;BME280;5307;42.548;22.968;2023-06-14T11:35:44;93510.94;;;24.98;48.19
10518;BME280;5307;42.548;22.968;2023-06-14T11:38:12;93508.50;;;25.31;48.70
10518;BME280;5307;42.548;22.968;2023-06-14T11:40:40;93506.50;;;25.46;47.57
10518;BME280;5307;42.548;22.968;2023-06-14T11:43:07;93500.53;;;25.42;46.94
10518;BME280;5307;42.548;22.968;2023-06-14T11:45:33;93508.78;;;25.12;42.45
10518;BME280;5307;42.548;22.968;2023-06-14T11:48:00;93490.66;;;25.34;43.87
10518;BME280;5307;42.548;22.968;2023-06-14T11:50:27;93485.31;;;25.59;44.10
10518;BME280;5307;42.548;22.968;2023-06-14T11:52:55;93495.28;;;24.95;44.03
10518;BME280;5307;42.548;22.968;2023-06-14T11:55:24;93491.53;;;24.93;47.13
10518;BME280;5307;42.548;22.968;2023-06-14T11:57:52;93487.44;;;24.94;48.06
10518;BME280;5307;42.548;22.968;2023-06-14T12:00:24;93499.00;;;24.98;48.89
10518;BME280;5307;42.548;22.968;2023-06-14T12:02:54;93497.44;;;24.81;49.29
10518;BME280;5307;42.548;22.968;2023-06-14T12:05:22;93492.19;;;24.49;48.03
10518;BME280;5307;42.548;22.968;2023-06-14T12:07:50;93490.34;;;24.52;51.55
10518;BME280;5307;42.548;22.968;2023-06-14T12:10:20;93491.09;;;24.32;49.47
10518;BME280;5307;42.548;22.968;2023-06-14T12:12:48;93507.22;;;24.25;50.25
10518;BME280;5307;42.548;22.968;2023-06-14T12:15:16;93502.94;;;24.24;49.83
10518;BME280;5307;42.548;22.968;2023-06-14T12:17:43;93498.50;;;23.87;52.69
10518;BME280;5307;42.548;22.968;2023-06-14T12:20:12;93495.31;;;24.04;53.44
10518;BME280;5307;42.548;22.968;2023-06-14T12:22:50;93492.19;;;24.08;54.28
10518;BME280;5307;42.548;22.968;2023-06-14T12:25:24;93487.69;;;24.25;57.51
10518;BME280;5307;42.548;22.968;2023-06-14T12:27:54;93484.56;;;23.87;62.24
10518;BME280;5307;42.548;22.968;2023-06-14T12:30:21;93487.28;;;24.21;66.44
10518;BME280;5307;42.548;22.968;2023-06-14T12:32:48;93484.28;;;23.98;67.78
10518;BME280;5307;42.548;22.968;2023-06-14T12:35:16;93478.63;;;24.33;66.67
10518;BME280;5307;42.548;22.968;2023-06-14T12:37:44;93486.06;;;24.51;67.97
10518;BME280;5307;42.548;22.968;2023-06-14T12:40:11;93481.97;;;24.52;65.87
10518;BME280;5307;42.548;22.968;2023-06-14T12:42:38;93484.63;;;24.16;64.78
10518;BME280;5307;42.548;22.968;2023-06-14T12:45:08;93483.41;;;23.83;65.80
10518;BME280;5307;42.548;22.968;2023-06-14T12:47:35;93481.03;;;23.53;65.46
10518;BME280;5307;42.548;22.968;2023-06-14T12:50:01;93478.44;;;23.89;63.17
10518;BME280;5307;42.548;22.968;2023-06-14T12:52:28;93475.25;;;23.85;62.17
10518;BME280;5307;42.548;22.968;2023-06-14T12:54:55;93468.66;;;23.95;63.00
10518;BME280;5307;42.548;22.968;2023-06-14T12:57:23;93469.88;;;23.87;65.02
10518;BME280;5307;42.548;22.968;2023-06-14T12:59:49;93467.75;;;23.80;66.28
10518;BME280;5307;42.548;22.968;2023-06-14T13:02:19;93464.81;;;24.06;67.15
10518;BME280;5307;42.548;22.968;2023-06-14T13:04:47;93472.88;;;24.10;64.11
10518;BME280;5307;42.548;22.968;2023-06-14T13:07:14;93478.25;;;24.08;63.43
10518;BME280;5307;42.548;22.968;2023-06-14T13:09:41;93478.03;;;24.26;64.67
10518;BME280;5307;42.548;22.968;2023-06-14T13:12:09;93480.81;;;23.85;63.42
10518;BME280;5307;42.548;22.968;2023-06-14T13:14:37;93472.84;;;23.89;62.24
10518;BME280;5307;42.548;22.968;2023-06-14T13:17:05;93481.41;;;23.91;64.90
10518;BME280;5307;42.548;22.968;2023-06-14T13:19:33;93478.56;;;23.49;67.48
10518;BME280;5307;42.548;22.968;2023-06-14T13:22:00;93482.84;;;23.84;70.15
10518;BME280;5307;42.548;22.968;2023-06-14T13:24:27;93480.50;;;24.09;68.63
10518;BME280;5307;42.548;22.968;2023-06-14T13:26:55;93477.19;;;24.18;68.38